Reed Point, MT (59069)

2:17 PM MDT on August 21, 2014 (GMT -0600)
RAWS FISHTAIL MT US | Change Station
CLOSE
Current Station
Personal Weather Station
Location: Fishtail, MT
Elevation: 4549 ft
Nearby Weather Stations

Elev 4549 ft 45.46 °N, 109.57 °W | Updated 55 minutes ago

Light Rain
Light Rain
63 °F
Feels Like 63 °F
N
5
Wind Variable Wind from ESE
Gusts 9.0 mph

Today
High -- | Low -- °F
--% Chance of Precip.
Yesterday
High -- | Low -- °F
Precip. -- in
6:25 AM 8:15 PM
Waning Crescent, 12% visible
Pressure 30.02 in
Visibility 10.0 miles
Clouds Few 1000 ft
Mostly Cloudy 7000 ft
Overcast 8500 ft
Dew Point 53 °F
Humidity 71%
Rainfall 0.14 in
Snow Depth Not available.
UV 3 out of 12
Pollen 4.30 out of 12
Air Quality Not available.
Flu Activity Not available.
METAR KLVM 211953Z AUTO VRB03KT 10SM -RA FEW010 BKN070 OVC085 15/12 A3010 RMK AO2 LTG DSNT S SLP164 P0008 T01500117

More Conditions Fewer Conditions

Pressure 30.02 in
Visibility 10.0 miles
Clouds Few 1000 ft
Mostly Cloudy 7000 ft
Overcast 8500 ft
Dew Point 53 °F
Humidity 71%
Rainfall 0.14 in
Snow Depth Not available.
UV 3 out of 12
Pollen 4.30 out of 12
Air Quality Not available.
Flu Activity Not available.
METAR KLVM 211953Z AUTO VRB03KT 10SM -RA FEW010 BKN070 OVC085 15/12 A3010 RMK AO2 LTG DSNT S SLP164 P0008 T01500117

More Conditions Fewer Conditions

10-Day Weather Forecast

Almanac

Astronomy

Aug. 21, 2014 Rise Set
Actual Time 6:25 AM MDT 8:15 PM MDT
Civil Twilight 5:54 AM MDT 8:47 PM MDT
Nautical Twilight 5:15 AM MDT 9:26 PM MDT
Astronomical Twilight 4:32 AM MDT 10:08 PM MDT
Moon 2:53 AM MDT 5:51 PM MDT
Length of Visible Light 14h 53m
Length of Day
13h 50m
Tomorrow will be 2m 58s shorter.
Waning Crescent, 12% of the Moon is Illuminated
Today
Waning Crescent
Aug 25
New
Sep 2
First Quarter
Sep 8
Full
Sep 15
Last Quarter

Today's Extremes

State Highs State Lows

Community

WunderPhotos

Upload Photos

1,746,014 photos uploaded!

WunderBlogs® & News

Nearby

Snow Depth

Station Depth Elevation
Burnt Mountain 0 in 5880 ft
Placer Basin 0 in 8830 ft
Cole Creek 1 in 7850 ft
Monument Peak 0 in 8850 ft
White Mill 2 in 8700 ft

Earthquake Activity

City Distance Mag. Time & Date
No recent earthquake activity has been reported nearby.
Minimum magnitude displayed is 2.5.

Coastal Water Temperatures

Place Temperature
No Stations Reporting

Nearby Weather Stations